Back to top

Dickinson, ND weather

Theodore Roosevelt Regional Airport, Dickinson, ND: 11/16/2019 19:26
Visibility10 statute mileslots of clouds
View 7-Day Forecast
Area Summary
Sky/CloudsBroken at 2400ft, Solid Overcast at 3500ft
Weather [last 24 hours]None
Pressure30.01 in.Hg (1016 hPa)
Dew Point32 °F (0 °C)
Relative Humidity73.1 %
Temperature39.9 °F (4.4 °C)red thermometer
Wind Chill30.7 °F (-0.696 °C)
Reading TimeMinimum to Maximum Temperature
6-hr ending 11/16@16:5639 °F to 43 °F (3.9 °C to 6.1 °C)
6-hr ending 11/16@10:5636 °F to 44.1 °F (2.2 °C to 6.7 °C)
6-hr ending 11/16@04:5634 °F to 39.9 °F (1.1 °C to 4.4 °C)
6-hr ending 11/15@22:5634 °F to 39 °F (1.1 °C to 3.9 °C)
24-hr ending 11/15@23:5628.9 °F to 50 °F (-1.7 °C to 10 °C)
Wind18.4 MPH (16 KT) green arrow pointing 292.5 degrees
Wind FromWest/Northwest (290 Degrees)
Last Hour's Peak Wind29.9 MPH (26 KT) on 11/16@19:15
Last Hour's Peak Wind FromWest/Northwest (290 Degrees)
Rolling 24-hr Peak Wind41.4 MPH (36 KT) on 11/16@11:18
Rolling 24-hr Peak Wind FromWest/Northwest (290 Degrees)
Twilight Begins06:22Sunshine Yesterday
Sunrise06:55N/A
Sunset16:17
Twilight Ends16:50
METARKDIK 170226Z AUTO 29016KT 10SM BKN024 OVC035 04/00 A3001 RMK AO2 PK WND 29026/0215 T00440000
Tags: